createdAt,value
2018-04-23T00:00:01.114Z,95580
2018-04-23T00:05:29.306Z,95591
2018-04-23T00:10:57.492Z,95588
2018-04-23T00:16:26.459Z,95586
2018-04-23T00:21:54.625Z,95589
2018-04-23T00:27:23.711Z,95596
2018-04-23T00:32:52.604Z,95599
2018-04-23T00:38:20.749Z,95596
2018-04-23T00:43:49.661Z,95606
2018-04-23T00:49:18.080Z,95600
2018-04-23T00:54:46.230Z,95599
2018-04-23T01:00:14.380Z,95591
2018-04-23T01:05:42.557Z,95598
2018-04-23T01:11:10.713Z,95599
2018-04-23T01:16:38.872Z,95602
2018-04-23T01:22:07.021Z,95600
2018-04-23T01:27:35.175Z,95602
2018-04-23T01:33:03.309Z,95600
2018-04-23T01:38:31.470Z,95601
2018-04-23T01:43:59.652Z,95611
2018-04-23T01:49:27.796Z,95608
2018-04-23T01:54:55.953Z,95617
2018-04-23T02:00:24.103Z,95610
2018-04-23T02:05:54.269Z,95619
2018-04-23T02:11:22.530Z,95625
2018-04-23T02:16:50.694Z,95618
2018-04-23T02:22:21.599Z,95622
2018-04-23T02:27:55.328Z,95621
2018-04-23T02:33:24.275Z,95618
2018-04-23T02:38:52.878Z,95613
2018-04-23T02:44:21.035Z,95614
2018-04-23T02:49:49.168Z,95624
2018-04-23T02:55:17.356Z,95630
2018-04-23T03:00:45.497Z,95631
2018-04-23T03:06:13.636Z,95634
2018-04-23T03:11:41.777Z,95628
2018-04-23T03:17:09.946Z,95626
2018-04-23T03:22:38.121Z,95627
2018-04-23T03:28:06.268Z,95628
2018-04-23T03:33:36.172Z,95629
2018-04-23T03:39:05.301Z,95641
2018-04-23T03:44:33.435Z,95644
2018-04-23T03:50:01.591Z,95641
2018-04-23T03:55:29.744Z,95650
2018-04-23T04:00:58.721Z,95660
2018-04-23T04:06:27.840Z,95655
2018-04-23T04:11:56.984Z,95646
2018-04-23T04:23:59.529Z,95647
2018-04-23T04:29:27.701Z,95650
2018-04-23T04:34:56.921Z,95654
2018-04-23T04:40:25.867Z,95652
2018-04-23T04:45:56.875Z,95647
2018-04-23T04:51:25.602Z,95662
2018-04-23T04:56:54.827Z,95655
2018-04-23T05:02:23.785Z,95653
2018-04-23T05:07:51.930Z,95652
2018-04-23T05:13:20.084Z,95662
2018-04-23T05:18:48.221Z,95666
2018-04-23T05:24:17.136Z,95670
2018-04-23T05:29:45.298Z,95680
2018-04-23T05:35:13.470Z,95681
2018-04-23T05:40:41.618Z,95686
2018-04-23T05:46:10.521Z,95683
2018-04-23T05:51:38.675Z,95681
2018-04-23T05:57:07.581Z,95682
2018-04-23T06:02:35.721Z,95687
2018-04-23T06:08:04.659Z,95676
2018-04-23T06:13:33.595Z,95668
2018-04-23T06:19:01.761Z,95670
2018-04-23T06:24:29.915Z,95665
2018-04-23T06:29:58.149Z,95673
2018-04-23T06:35:27.113Z,95669
2018-04-23T06:40:55.412Z,95672
2018-04-23T06:46:24.342Z,95673
2018-04-23T06:51:52.487Z,95675
2018-04-23T06:57:21.398Z,95673
2018-04-23T07:02:49.575Z,95675
2018-04-23T07:08:17.708Z,95662
2018-04-23T07:13:45.850Z,95664
2018-04-23T07:19:13.992Z,95655
2018-04-23T07:24:42.136Z,95658
2018-04-23T07:30:10.288Z,95649
2018-04-23T07:35:38.450Z,95662
2018-04-23T07:41:06.646Z,95677
2018-04-23T07:46:34.805Z,95688
2018-04-23T07:52:03.739Z,95697
2018-04-23T07:57:32.682Z,95688
2018-04-23T08:03:01.601Z,95683
2018-04-23T08:08:29.766Z,95687
2018-04-23T08:13:57.954Z,95686
2018-04-23T08:19:26.932Z,95682
2018-04-23T08:24:55.126Z,95683
2018-04-23T08:30:24.041Z,95685
2018-04-23T08:35:52.186Z,95677
2018-04-23T08:41:20.351Z,95679
2018-04-23T08:46:48.496Z,95683
2018-04-23T08:52:16.653Z,95681
2018-04-23T08:57:44.807Z,95682
2018-04-23T09:03:13.010Z,95682
2018-04-23T09:08:41.157Z,95678
2018-04-23T09:14:09.308Z,95666
2018-04-23T09:19:38.264Z,95680
2018-04-23T09:25:06.415Z,95685
2018-04-23T09:30:34.618Z,95683
2018-04-23T09:36:02.768Z,95676
2018-04-23T09:41:30.950Z,95676
2018-04-23T09:46:59.112Z,95673
2018-04-23T09:52:27.303Z,95670
2018-04-23T09:57:55.480Z,95661
2018-04-23T10:03:25.381Z,95666
2018-04-23T10:08:53.526Z,95655
2018-04-23T10:14:21.688Z,95665
2018-04-23T10:19:50.597Z,95675
2018-04-23T10:25:18.746Z,95679
2018-04-23T10:30:47.673Z,95670
2018-04-23T10:36:15.808Z,95668
2018-04-23T10:41:44.722Z,95672
2018-04-23T10:47:12.879Z,95665
2018-04-23T10:52:41.037Z,95674
2018-04-23T10:58:09.177Z,95664
2018-04-23T11:03:37.326Z,95656
2018-04-23T11:09:07.148Z,95655
2018-04-23T11:14:35.405Z,95647
2018-04-23T11:20:03.596Z,95640
2018-04-23T11:25:31.807Z,95630
2018-04-23T11:30:59.975Z,95635
2018-04-23T11:36:28.174Z,95631
2018-04-23T11:41:57.118Z,95626
2018-04-23T11:47:27.066Z,95632
2018-04-23T11:52:55.235Z,95613
2018-04-23T11:58:24.157Z,95603
2018-04-23T12:03:52.359Z,95608
2018-04-23T12:09:21.290Z,95600
2018-04-23T12:14:50.440Z,95599
2018-04-23T12:20:19.383Z,95598
2018-04-23T12:25:48.292Z,95591
2018-04-23T12:31:16.490Z,95594
2018-04-23T12:36:44.657Z,95587
2018-04-23T12:42:13.638Z,95586
2018-04-23T12:47:42.798Z,95583
2018-04-23T12:53:11.008Z,95571
2018-04-23T12:58:39.348Z,95577
2018-04-23T13:04:07.657Z,95580
2018-04-23T13:09:36.784Z,95566
2018-04-23T13:15:05.132Z,95564
2018-04-23T13:20:33.350Z,95547
2018-04-23T13:26:01.491Z,95557
2018-04-23T13:31:29.776Z,95554
2018-04-23T13:36:58.814Z,95559
2018-04-23T13:42:27.007Z,95566
2018-04-23T13:47:59.533Z,95565
2018-04-23T13:53:27.689Z,95564
2018-04-23T13:58:55.859Z,95578
2018-04-23T14:04:24.788Z,95586
2018-04-23T14:09:52.992Z,95576
2018-04-23T14:15:21.143Z,95586
2018-04-23T14:20:50.089Z,95585
2018-04-23T14:26:18.249Z,95597
2018-04-23T14:31:47.182Z,95597
2018-04-23T14:37:15.327Z,95569
2018-04-23T14:42:43.472Z,95595
2018-04-23T14:48:12.444Z,95594
2018-04-23T14:53:40.584Z,95617
2018-04-23T14:59:08.755Z,95634
2018-04-23T15:04:37.672Z,95636
2018-04-23T15:10:05.842Z,95644
2018-04-23T15:15:33.977Z,95650
2018-04-23T15:21:02.162Z,95668
2018-04-23T15:26:41.044Z,95659
2018-04-23T15:32:13.580Z,95643
2018-04-23T15:37:41.747Z,95636
2018-04-23T15:43:09.962Z,95625
2018-04-23T15:48:38.125Z,95631
2018-04-23T15:54:06.314Z,95620
2018-04-23T15:59:34.474Z,95626
2018-04-23T16:05:03.137Z,95618
2018-04-23T16:10:31.286Z,95612
2018-04-23T16:15:59.461Z,95613
2018-04-23T16:21:27.637Z,95619
2018-04-23T16:26:56.568Z,95621
2018-04-23T16:32:25.517Z,95616
2018-04-23T16:37:54.435Z,95618
2018-04-23T16:43:22.621Z,95632
2018-04-23T16:48:50.768Z,95632
2018-04-23T16:54:18.930Z,95631
2018-04-23T16:59:47.081Z,95631
2018-04-23T17:05:15.333Z,95632
2018-04-23T17:10:43.744Z,95644
2018-04-23T17:16:12.090Z,95645
2018-04-23T17:21:41.994Z,95655
2018-04-23T17:27:10.142Z,95664
2018-04-23T17:32:38.291Z,95657
2018-04-23T17:38:06.452Z,95665
2018-04-23T17:43:34.601Z,95665
2018-04-23T17:49:02.754Z,95669
2018-04-23T17:54:30.964Z,95681
2018-04-23T17:59:59.129Z,95695
2018-04-23T18:05:27.268Z,95706
2018-04-23T18:10:55.430Z,95720
2018-04-23T18:16:23.584Z,95730
2018-04-23T18:21:51.770Z,95743
2018-04-23T18:27:20.688Z,95753
2018-04-23T18:32:48.844Z,95761
2018-04-23T18:38:17.780Z,95766
2018-04-23T18:43:45.953Z,95770
2018-04-23T18:49:14.109Z,95783
2018-04-23T18:54:43.962Z,95789
2018-04-23T19:00:12.120Z,95786
2018-04-23T19:05:44.077Z,95785
2018-04-23T19:11:12.261Z,95786
2018-04-23T19:16:40.395Z,95799
2018-04-23T19:22:08.547Z,95808
2018-04-23T19:27:36.802Z,95801
2018-04-23T19:33:04.961Z,95804
2018-04-23T19:38:33.137Z,95796
2018-04-23T19:44:02.084Z,95796
2018-04-23T19:49:31.045Z,95805
2018-04-23T19:54:59.200Z,95819
2018-04-23T20:00:27.418Z,95822
2018-04-23T20:05:55.552Z,95831
2018-04-23T20:11:25.472Z,95825
2018-04-23T20:16:53.622Z,95835
2018-04-23T20:22:21.776Z,95826
2018-04-23T20:27:50.912Z,95843
2018-04-23T20:33:19.854Z,95854
2018-04-23T20:38:48.003Z,95867
2018-04-23T20:44:16.244Z,95879
2018-04-23T20:49:45.114Z,95884
2018-04-23T20:55:15.089Z,95884
2018-04-23T21:00:44.283Z,95885
2018-04-23T21:06:12.601Z,95897
2018-04-23T21:11:40.766Z,95893
2018-04-23T21:17:08.991Z,95895
2018-04-23T21:22:37.901Z,95892
2018-04-23T21:28:07.992Z,95891
2018-04-23T21:33:36.933Z,95886
2018-04-23T21:39:06.712Z,95892
2018-04-23T21:44:35.047Z,95876
2018-04-23T21:50:03.242Z,95877
2018-04-23T21:55:32.201Z,95878
2018-04-23T22:01:01.334Z,95884
2018-04-23T22:06:29.516Z,95876
2018-04-23T22:11:57.695Z,95875
2018-04-23T22:17:25.883Z,95884
2018-04-23T22:22:54.809Z,95899
2018-04-23T22:28:36.072Z,95896
2018-04-23T22:34:04.221Z,95899
2018-04-23T22:39:32.405Z,95896
2018-04-23T22:45:00.568Z,95904
2018-04-23T22:50:28.845Z,95901
2018-04-23T22:55:57.028Z,95907
2018-04-23T23:01:25.938Z,95907
2018-04-23T23:06:54.075Z,95904
2018-04-23T23:12:22.257Z,95893
2018-04-23T23:17:50.383Z,95889
2018-04-23T23:23:18.536Z,95887
2018-04-23T23:28:46.690Z,95885
2018-04-23T23:34:14.841Z,95877
2018-04-23T23:39:42.971Z,95877
2018-04-23T23:45:11.133Z,95889
2018-04-23T23:50:40.064Z,95883
2018-04-23T23:56:08.205Z,95878
